sensor_id;sensor_type;location;lat;lon;timestamp;P1;durP1;ratioP1;P2;durP2;ratioP2
70780;SDS011;59514;48.810;2.134;2023-07-31T00:01:57;4.50;;;2.17;;
70780;SDS011;59514;48.810;2.134;2023-07-31T00:04:23;2.47;;;1.60;;
70780;SDS011;59514;48.810;2.134;2023-07-31T00:06:48;4.10;;;2.08;;
70780;SDS011;59514;48.810;2.134;2023-07-31T00:09:13;3.47;;;2.57;;
70780;SDS011;59514;48.810;2.134;2023-07-31T00:11:39;3.83;;;2.50;;
70780;SDS011;59514;48.810;2.134;2023-07-31T00:14:04;8.35;;;2.60;;
70780;SDS011;59514;48.810;2.134;2023-07-31T00:16:29;4.07;;;2.83;;
70780;SDS011;59514;48.810;2.134;2023-07-31T00:18:55;4.90;;;2.17;;
70780;SDS011;59514;48.810;2.134;2023-07-31T00:21:20;6.27;;;2.50;;
70780;SDS011;59514;48.810;2.134;2023-07-31T00:23:45;4.32;;;2.20;;
70780;SDS011;59514;48.810;2.134;2023-07-31T00:26:10;3.97;;;2.40;;
70780;SDS011;59514;48.810;2.134;2023-07-31T00:28:36;3.13;;;2.20;;
70780;SDS011;59514;48.810;2.134;2023-07-31T00:31:01;4.53;;;2.10;;
70780;SDS011;59514;48.810;2.134;2023-07-31T00:33:28;4.70;;;2.25;;
70780;SDS011;59514;48.810;2.134;2023-07-31T00:35:53;5.28;;;2.15;;
70780;SDS011;59514;48.810;2.134;2023-07-31T00:38:20;4.07;;;2.25;;
70780;SDS011;59514;48.810;2.134;2023-07-31T00:40:45;3.78;;;2.03;;
70780;SDS011;59514;48.810;2.134;2023-07-31T00:43:11;5.93;;;2.42;;
70780;SDS011;59514;48.810;2.134;2023-07-31T00:45:36;3.37;;;1.83;;
70780;SDS011;59514;48.810;2.134;2023-07-31T00:48:01;3.05;;;2.17;;
70780;SDS011;59514;48.810;2.134;2023-07-31T00:50:27;4.70;;;2.20;;
70780;SDS011;59514;48.810;2.134;2023-07-31T00:52:52;5.20;;;2.40;;
70780;SDS011;59514;48.810;2.134;2023-07-31T00:55:18;5.18;;;2.30;;
70780;SDS011;59514;48.810;2.134;2023-07-31T00:57:43;3.13;;;1.90;;
70780;SDS011;59514;48.810;2.134;2023-07-31T01:00:10;4.00;;;2.13;;
70780;SDS011;59514;48.810;2.134;2023-07-31T01:02:35;3.22;;;2.25;;
70780;SDS011;59514;48.810;2.134;2023-07-31T01:05:01;2.92;;;1.80;;
70780;SDS011;59514;48.810;2.134;2023-07-31T01:07:29;4.28;;;2.33;;
70780;SDS011;59514;48.810;2.134;2023-07-31T01:09:59;2.58;;;1.90;;
70780;SDS011;59514;48.810;2.134;2023-07-31T01:12:25;3.05;;;2.00;;
70780;SDS011;59514;48.810;2.134;2023-07-31T01:15:02;3.53;;;2.13;;
70780;SDS011;59514;48.810;2.134;2023-07-31T01:17:28;4.15;;;2.08;;
70780;SDS011;59514;48.810;2.134;2023-07-31T01:19:54;5.63;;;2.40;;
70780;SDS011;59514;48.810;2.134;2023-07-31T01:27:44;4.97;;;1.95;;
70780;SDS011;59514;48.810;2.134;2023-07-31T01:30:15;4.13;;;2.20;;
70780;SDS011;59514;48.810;2.134;2023-07-31T01:32:42;5.63;;;2.22;;
70780;SDS011;59514;48.810;2.134;2023-07-31T01:35:08;3.22;;;2.22;;
70780;SDS011;59514;48.810;2.134;2023-07-31T01:37:34;3.50;;;2.10;;
70780;SDS011;59514;48.810;2.134;2023-07-31T01:39:59;5.03;;;2.45;;
70780;SDS011;59514;48.810;2.134;2023-07-31T01:42:24;3.77;;;2.40;;
70780;SDS011;59514;48.810;2.134;2023-07-31T01:44:49;2.83;;;2.33;;
70780;SDS011;59514;48.810;2.134;2023-07-31T01:47:15;3.30;;;2.10;;
70780;SDS011;59514;48.810;2.134;2023-07-31T01:49:40;3.73;;;2.07;;
70780;SDS011;59514;48.810;2.134;2023-07-31T01:52:05;4.07;;;2.07;;
70780;SDS011;59514;48.810;2.134;2023-07-31T01:54:30;4.97;;;2.10;;
70780;SDS011;59514;48.810;2.134;2023-07-31T01:56:56;3.25;;;2.00;;
70780;SDS011;59514;48.810;2.134;2023-07-31T01:59:21;3.93;;;2.10;;
70780;SDS011;59514;48.810;2.134;2023-07-31T02:01:46;3.73;;;1.63;;
70780;SDS011;59514;48.810;2.134;2023-07-31T02:04:11;3.20;;;2.00;;
70780;SDS011;59514;48.810;2.134;2023-07-31T02:06:37;2.93;;;2.00;;
70780;SDS011;59514;48.810;2.134;2023-07-31T02:09:03;2.75;;;2.00;;
70780;SDS011;59514;48.810;2.134;2023-07-31T02:11:28;2.90;;;1.65;;
70780;SDS011;59514;48.810;2.134;2023-07-31T02:13:53;3.70;;;2.00;;
70780;SDS011;59514;48.810;2.134;2023-07-31T02:16:19;3.80;;;1.67;;
70780;SDS011;59514;48.810;2.134;2023-07-31T02:18:44;3.27;;;1.60;;
70780;SDS011;59514;48.810;2.134;2023-07-31T02:21:09;2.87;;;1.70;;
70780;SDS011;59514;48.810;2.134;2023-07-31T02:23:34;3.43;;;1.77;;
70780;SDS011;59514;48.810;2.134;2023-07-31T02:25:59;3.43;;;2.00;;
70780;SDS011;59514;48.810;2.134;2023-07-31T02:28:25;3.47;;;1.93;;
70780;SDS011;59514;48.810;2.134;2023-07-31T02:30:50;4.23;;;1.80;;
70780;SDS011;59514;48.810;2.134;2023-07-31T02:33:17;3.13;;;1.85;;
70780;SDS011;59514;48.810;2.134;2023-07-31T02:35:42;2.77;;;1.80;;
70780;SDS011;59514;48.810;2.134;2023-07-31T02:38:08;3.28;;;1.73;;
70780;SDS011;59514;48.810;2.134;2023-07-31T02:40:33;2.80;;;1.60;;
70780;SDS011;59514;48.810;2.134;2023-07-31T02:42:58;2.50;;;1.50;;
70780;SDS011;59514;48.810;2.134;2023-07-31T02:45:23;4.67;;;1.40;;
70780;SDS011;59514;48.810;2.134;2023-07-31T02:47:48;3.20;;;1.70;;
70780;SDS011;59514;48.810;2.134;2023-07-31T02:50:14;5.80;;;2.33;;
70780;SDS011;59514;48.810;2.134;2023-07-31T02:52:39;2.60;;;1.63;;
70780;SDS011;59514;48.810;2.134;2023-07-31T02:55:04;2.67;;;1.63;;
70780;SDS011;59514;48.810;2.134;2023-07-31T02:57:30;2.90;;;1.92;;
70780;SDS011;59514;48.810;2.134;2023-07-31T02:59:55;3.23;;;1.60;;
70780;SDS011;59514;48.810;2.134;2023-07-31T03:02:20;4.30;;;1.83;;
70780;SDS011;59514;48.810;2.134;2023-07-31T03:04:46;2.60;;;1.27;;
70780;SDS011;59514;48.810;2.134;2023-07-31T03:07:11;4.07;;;2.03;;
70780;SDS011;59514;48.810;2.134;2023-07-31T03:09:36;4.37;;;1.60;;
70780;SDS011;59514;48.810;2.134;2023-07-31T03:12:01;5.73;;;1.70;;
70780;SDS011;59514;48.810;2.134;2023-07-31T03:14:27;2.70;;;1.43;;
70780;SDS011;59514;48.810;2.134;2023-07-31T03:16:52;2.97;;;1.60;;
70780;SDS011;59514;48.810;2.134;2023-07-31T03:19:17;2.85;;;1.80;;
70780;SDS011;59514;48.810;2.134;2023-07-31T03:21:43;2.53;;;1.65;;
70780;SDS011;59514;48.810;2.134;2023-07-31T03:24:08;3.50;;;1.83;;
70780;SDS011;59514;48.810;2.134;2023-07-31T03:26:33;3.38;;;1.80;;
70780;SDS011;59514;48.810;2.134;2023-07-31T03:28:59;4.88;;;1.65;;
70780;SDS011;59514;48.810;2.134;2023-07-31T03:31:24;3.67;;;1.70;;
70780;SDS011;59514;48.810;2.134;2023-07-31T03:33:49;1.97;;;1.17;;
70780;SDS011;59514;48.810;2.134;2023-07-31T03:36:14;4.13;;;2.00;;
70780;SDS011;59514;48.810;2.134;2023-07-31T03:38:40;5.07;;;1.67;;
70780;SDS011;59514;48.810;2.134;2023-07-31T03:41:05;3.97;;;2.23;;
70780;SDS011;59514;48.810;2.134;2023-07-31T03:43:31;3.70;;;2.00;;
70780;SDS011;59514;48.810;2.134;2023-07-31T03:45:58;4.25;;;2.20;;
70780;SDS011;59514;48.810;2.134;2023-07-31T03:48:23;3.67;;;1.63;;
70780;SDS011;59514;48.810;2.134;2023-07-31T03:50:48;5.13;;;2.03;;
70780;SDS011;59514;48.810;2.134;2023-07-31T03:53:13;4.70;;;2.20;;
70780;SDS011;59514;48.810;2.134;2023-07-31T03:55:39;4.32;;;2.55;;
70780;SDS011;59514;48.810;2.134;2023-07-31T03:58:05;3.45;;;1.75;;
70780;SDS011;59514;48.810;2.134;2023-07-31T04:00:30;5.03;;;1.85;;
70780;SDS011;59514;48.810;2.134;2023-07-31T04:02:55;4.15;;;1.88;;
70780;SDS011;59514;48.810;2.134;2023-07-31T04:05:21;3.63;;;1.90;;
70780;SDS011;59514;48.810;2.134;2023-07-31T04:07:46;3.88;;;2.17;;
70780;SDS011;59514;48.810;2.134;2023-07-31T04:10:11;2.43;;;1.87;;
70780;SDS011;59514;48.810;2.134;2023-07-31T04:12:37;3.92;;;2.15;;
70780;SDS011;59514;48.810;2.134;2023-07-31T04:15:02;3.43;;;1.87;;
70780;SDS011;59514;48.810;2.134;2023-07-31T04:17:27;4.00;;;2.22;;
70780;SDS011;59514;48.810;2.134;2023-07-31T04:19:52;6.03;;;1.80;;
70780;SDS011;59514;48.810;2.134;2023-07-31T04:22:17;4.77;;;2.13;;
70780;SDS011;59514;48.810;2.134;2023-07-31T04:24:43;4.27;;;1.83;;
70780;SDS011;59514;48.810;2.134;2023-07-31T04:27:08;5.87;;;2.80;;
70780;SDS011;59514;48.810;2.134;2023-07-31T04:29:33;4.03;;;1.90;;
70780;SDS011;59514;48.810;2.134;2023-07-31T04:32:01;5.50;;;2.57;;
70780;SDS011;59514;48.810;2.134;2023-07-31T04:34:27;5.55;;;2.03;;
70780;SDS011;59514;48.810;2.134;2023-07-31T04:36:52;6.63;;;2.73;;
70780;SDS011;59514;48.810;2.134;2023-07-31T04:39:17;5.03;;;2.63;;
70780;SDS011;59514;48.810;2.134;2023-07-31T04:41:43;4.70;;;2.70;;
70780;SDS011;59514;48.810;2.134;2023-07-31T04:44:08;5.43;;;2.73;;
70780;SDS011;59514;48.810;2.134;2023-07-31T04:46:36;5.40;;;2.97;;
70780;SDS011;59514;48.810;2.134;2023-07-31T04:49:02;6.30;;;3.00;;
70780;SDS011;59514;48.810;2.134;2023-07-31T04:51:28;6.20;;;3.08;;
70780;SDS011;59514;48.810;2.134;2023-07-31T04:53:53;5.40;;;3.00;;
70780;SDS011;59514;48.810;2.134;2023-07-31T04:56:18;7.53;;;2.55;;
70780;SDS011;59514;48.810;2.134;2023-07-31T04:58:44;6.53;;;3.33;;
70780;SDS011;59514;48.810;2.134;2023-07-31T05:01:09;5.47;;;3.05;;
70780;SDS011;59514;48.810;2.134;2023-07-31T05:03:34;6.07;;;3.20;;
70780;SDS011;59514;48.810;2.134;2023-07-31T05:05:59;5.67;;;3.10;;
70780;SDS011;59514;48.810;2.134;2023-07-31T05:08:25;7.40;;;3.40;;
70780;SDS011;59514;48.810;2.134;2023-07-31T05:10:50;7.30;;;3.07;;
70780;SDS011;59514;48.810;2.134;2023-07-31T05:13:15;4.00;;;3.03;;
70780;SDS011;59514;48.810;2.134;2023-07-31T05:15:41;4.82;;;2.72;;
70780;SDS011;59514;48.810;2.134;2023-07-31T05:18:06;7.65;;;3.42;;
70780;SDS011;59514;48.810;2.134;2023-07-31T05:20:31;8.47;;;3.30;;
70780;SDS011;59514;48.810;2.134;2023-07-31T05:22:57;4.97;;;3.22;;
70780;SDS011;59514;48.810;2.134;2023-07-31T05:25:22;6.50;;;3.57;;
70780;SDS011;59514;48.810;2.134;2023-07-31T05:27:47;5.33;;;3.40;;
70780;SDS011;59514;48.810;2.134;2023-07-31T05:30:12;9.88;;;3.50;;
70780;SDS011;59514;48.810;2.134;2023-07-31T05:32:38;8.05;;;3.75;;
70780;SDS011;59514;48.810;2.134;2023-07-31T05:35:03;7.03;;;3.40;;
70780;SDS011;59514;48.810;2.134;2023-07-31T05:37:28;7.72;;;3.65;;
70780;SDS011;59514;48.810;2.134;2023-07-31T05:39:54;7.03;;;3.30;;
70780;SDS011;59514;48.810;2.134;2023-07-31T05:42:19;7.07;;;3.70;;
70780;SDS011;59514;48.810;2.134;2023-07-31T05:44:44;8.32;;;3.78;;
70780;SDS011;59514;48.810;2.134;2023-07-31T05:47:10;10.30;;;3.95;;
70780;SDS011;59514;48.810;2.134;2023-07-31T05:49:35;10.43;;;4.70;;
70780;SDS011;59514;48.810;2.134;2023-07-31T05:52:01;6.32;;;3.63;;
70780;SDS011;59514;48.810;2.134;2023-07-31T05:54:26;7.00;;;3.67;;
70780;SDS011;59514;48.810;2.134;2023-07-31T05:56:51;9.20;;;4.30;;
70780;SDS011;59514;48.810;2.134;2023-07-31T05:59:16;8.10;;;4.00;;
70780;SDS011;59514;48.810;2.134;2023-07-31T06:01:42;7.28;;;4.13;;
70780;SDS011;59514;48.810;2.134;2023-07-31T06:04:07;7.50;;;3.93;;
70780;SDS011;59514;48.810;2.134;2023-07-31T06:06:33;8.05;;;3.65;;
70780;SDS011;59514;48.810;2.134;2023-07-31T06:08:59;7.78;;;4.20;;
70780;SDS011;59514;48.810;2.134;2023-07-31T06:11:24;7.70;;;4.00;;
70780;SDS011;59514;48.810;2.134;2023-07-31T06:13:49;7.07;;;3.70;;
70780;SDS011;59514;48.810;2.134;2023-07-31T06:16:15;9.10;;;4.32;;
70780;SDS011;59514;48.810;2.134;2023-07-31T06:18:40;7.05;;;4.18;;
70780;SDS011;59514;48.810;2.134;2023-07-31T06:21:06;6.50;;;3.55;;
70780;SDS011;59514;48.810;2.134;2023-07-31T06:23:31;8.32;;;3.92;;
70780;SDS011;59514;48.810;2.134;2023-07-31T06:25:56;10.80;;;4.20;;
70780;SDS011;59514;48.810;2.134;2023-07-31T06:28:26;8.67;;;3.70;;
70780;SDS011;59514;48.810;2.134;2023-07-31T06:30:52;7.00;;;4.15;;
70780;SDS011;59514;48.810;2.134;2023-07-31T06:33:17;11.32;;;4.43;;
70780;SDS011;59514;48.810;2.134;2023-07-31T06:35:42;14.87;;;4.23;;
70780;SDS011;59514;48.810;2.134;2023-07-31T06:38:07;9.30;;;3.63;;
70780;SDS011;59514;48.810;2.134;2023-07-31T06:40:32;7.57;;;3.87;;
70780;SDS011;59514;48.810;2.134;2023-07-31T06:42:58;6.27;;;3.80;;
70780;SDS011;59514;48.810;2.134;2023-07-31T06:45:23;11.73;;;4.63;;
70780;SDS011;59514;48.810;2.134;2023-07-31T06:47:48;8.13;;;4.45;;
70780;SDS011;59514;48.810;2.134;2023-07-31T06:50:14;6.88;;;4.18;;
70780;SDS011;59514;48.810;2.134;2023-07-31T06:52:39;7.47;;;4.43;;
70780;SDS011;59514;48.810;2.134;2023-07-31T06:55:17;8.48;;;3.72;;
70780;SDS011;59514;48.810;2.134;2023-07-31T06:57:46;11.18;;;5.07;;
70780;SDS011;59514;48.810;2.134;2023-07-31T07:00:11;9.90;;;3.90;;
70780;SDS011;59514;48.810;2.134;2023-07-31T07:02:37;7.18;;;3.88;;
70780;SDS011;59514;48.810;2.134;2023-07-31T07:05:02;10.18;;;4.50;;
70780;SDS011;59514;48.810;2.134;2023-07-31T07:07:27;12.05;;;4.55;;
70780;SDS011;59514;48.810;2.134;2023-07-31T07:09:53;7.32;;;4.00;;
70780;SDS011;59514;48.810;2.134;2023-07-31T07:12:18;7.97;;;4.00;;
70780;SDS011;59514;48.810;2.134;2023-07-31T07:14:44;8.57;;;4.05;;
70780;SDS011;59514;48.810;2.134;2023-07-31T07:17:11;7.97;;;4.00;;
70780;SDS011;59514;48.810;2.134;2023-07-31T07:19:36;11.60;;;3.83;;
70780;SDS011;59514;48.810;2.134;2023-07-31T07:22:01;9.85;;;3.88;;
70780;SDS011;59514;48.810;2.134;2023-07-31T07:24:27;8.27;;;4.35;;
70780;SDS011;59514;48.810;2.134;2023-07-31T07:26:52;8.57;;;4.57;;
70780;SDS011;59514;48.810;2.134;2023-07-31T07:29:17;8.57;;;4.50;;
70780;SDS011;59514;48.810;2.134;2023-07-31T07:31:42;7.17;;;3.90;;
70780;SDS011;59514;48.810;2.134;2023-07-31T07:34:09;9.25;;;4.07;;
70780;SDS011;59514;48.810;2.134;2023-07-31T07:36:34;5.28;;;3.47;;
70780;SDS011;59514;48.810;2.134;2023-07-31T07:38:59;8.10;;;3.60;;
70780;SDS011;59514;48.810;2.134;2023-07-31T07:41:25;12.20;;;3.93;;
70780;SDS011;59514;48.810;2.134;2023-07-31T07:43:50;6.30;;;3.88;;
70780;SDS011;59514;48.810;2.134;2023-07-31T07:46:16;6.25;;;3.60;;
70780;SDS011;59514;48.810;2.134;2023-07-31T07:48:41;6.63;;;3.53;;
70780;SDS011;59514;48.810;2.134;2023-07-31T07:51:06;7.63;;;4.30;;
70780;SDS011;59514;48.810;2.134;2023-07-31T07:53:32;5.73;;;3.60;;
70780;SDS011;59514;48.810;2.134;2023-07-31T07:55:57;8.90;;;3.90;;
70780;SDS011;59514;48.810;2.134;2023-07-31T07:58:22;8.15;;;3.83;;
70780;SDS011;59514;48.810;2.134;2023-07-31T08:00:48;8.00;;;4.15;;
70780;SDS011;59514;48.810;2.134;2023-07-31T08:03:13;7.90;;;3.50;;
70780;SDS011;59514;48.810;2.134;2023-07-31T08:05:39;5.57;;;3.30;;
70780;SDS011;59514;48.810;2.134;2023-07-31T08:08:04;6.73;;;3.07;;
70780;SDS011;59514;48.810;2.134;2023-07-31T08:10:29;5.93;;;3.47;;
70780;SDS011;59514;48.810;2.134;2023-07-31T08:12:54;5.78;;;3.88;;
70780;SDS011;59514;48.810;2.134;2023-07-31T08:15:23;8.37;;;3.60;;
70780;SDS011;59514;48.810;2.134;2023-07-31T08:17:48;6.20;;;3.17;;
70780;SDS011;59514;48.810;2.134;2023-07-31T08:20:14;7.67;;;4.27;;
70780;SDS011;59514;48.810;2.134;2023-07-31T08:22:39;7.22;;;3.45;;
70780;SDS011;59514;48.810;2.134;2023-07-31T08:25:05;9.20;;;4.22;;
70780;SDS011;59514;48.810;2.134;2023-07-31T08:27:31;6.53;;;3.50;;
70780;SDS011;59514;48.810;2.134;2023-07-31T08:29:57;10.05;;;2.97;;
70780;SDS011;59514;48.810;2.134;2023-07-31T08:32:22;6.73;;;3.97;;
70780;SDS011;59514;48.810;2.134;2023-07-31T08:34:47;7.53;;;3.70;;
70780;SDS011;59514;48.810;2.134;2023-07-31T08:37:13;6.47;;;3.50;;
70780;SDS011;59514;48.810;2.134;2023-07-31T08:39:38;6.40;;;3.40;;
70780;SDS011;59514;48.810;2.134;2023-07-31T08:42:07;5.25;;;3.25;;
70780;SDS011;59514;48.810;2.134;2023-07-31T08:44:32;5.78;;;3.22;;
70780;SDS011;59514;48.810;2.134;2023-07-31T08:46:58;5.40;;;3.05;;
70780;SDS011;59514;48.810;2.134;2023-07-31T08:49:23;7.68;;;3.22;;
70780;SDS011;59514;48.810;2.134;2023-07-31T08:51:50;6.78;;;3.40;;
70780;SDS011;59514;48.810;2.134;2023-07-31T08:54:15;6.85;;;3.42;;
70780;SDS011;59514;48.810;2.134;2023-07-31T08:56:41;5.40;;;3.30;;
70780;SDS011;59514;48.810;2.134;2023-07-31T08:59:07;5.28;;;3.30;;
70780;SDS011;59514;48.810;2.134;2023-07-31T09:01:34;6.88;;;3.90;;
70780;SDS011;59514;48.810;2.134;2023-07-31T09:04:01;5.43;;;3.28;;
70780;SDS011;59514;48.810;2.134;2023-07-31T09:06:27;6.68;;;2.75;;
70780;SDS011;59514;48.810;2.134;2023-07-31T09:08:54;6.55;;;3.67;;
70780;SDS011;59514;48.810;2.134;2023-07-31T09:11:20;6.30;;;3.58;;
70780;SDS011;59514;48.810;2.134;2023-07-31T09:13:46;5.22;;;3.33;;
70780;SDS011;59514;48.810;2.134;2023-07-31T09:16:11;5.77;;;3.23;;
70780;SDS011;59514;48.810;2.134;2023-07-31T09:18:55;8.02;;;3.40;;
70780;SDS011;59514;48.810;2.134;2023-07-31T09:21:22;5.78;;;3.58;;
70780;SDS011;59514;48.810;2.134;2023-07-31T09:23:47;6.40;;;3.40;;
70780;SDS011;59514;48.810;2.134;2023-07-31T09:26:35;5.93;;;3.33;;
70780;SDS011;59514;48.810;2.134;2023-07-31T09:29:01;9.45;;;4.20;;
70780;SDS011;59514;48.810;2.134;2023-07-31T09:31:39;6.50;;;3.47;;
70780;SDS011;59514;48.810;2.134;2023-07-31T09:34:05;8.35;;;4.60;;
70780;SDS011;59514;48.810;2.134;2023-07-31T09:36:30;8.68;;;4.03;;
70780;SDS011;59514;48.810;2.134;2023-07-31T09:38:58;6.85;;;3.70;;
70780;SDS011;59514;48.810;2.134;2023-07-31T09:41:26;4.85;;;3.00;;
70780;SDS011;59514;48.810;2.134;2023-07-31T09:43:55;5.85;;;3.17;;
70780;SDS011;59514;48.810;2.134;2023-07-31T09:46:21;9.70;;;3.83;;
70780;SDS011;59514;48.810;2.134;2023-07-31T09:48:46;4.43;;;2.80;;
70780;SDS011;59514;48.810;2.134;2023-07-31T09:51:12;7.38;;;3.75;;
70780;SDS011;59514;48.810;2.134;2023-07-31T09:53:37;7.10;;;3.20;;
70780;SDS011;59514;48.810;2.134;2023-07-31T09:56:02;7.87;;;3.53;;
70780;SDS011;59514;48.810;2.134;2023-07-31T09:58:28;6.43;;;3.42;;
70780;SDS011;59514;48.810;2.134;2023-07-31T10:00:54;6.30;;;3.15;;
70780;SDS011;59514;48.810;2.134;2023-07-31T10:03:19;5.13;;;3.45;;
70780;SDS011;59514;48.810;2.134;2023-07-31T10:05:46;8.27;;;3.53;;
70780;SDS011;59514;48.810;2.134;2023-07-31T10:08:15;9.95;;;4.15;;
70780;SDS011;59514;48.810;2.134;2023-07-31T10:10:41;6.45;;;3.63;;
70780;SDS011;59514;48.810;2.134;2023-07-31T10:13:07;7.03;;;4.50;;
70780;SDS011;59514;48.810;2.134;2023-07-31T10:15:33;11.20;;;4.38;;
70780;SDS011;59514;48.810;2.134;2023-07-31T10:17:59;6.78;;;4.43;;
70780;SDS011;59514;48.810;2.134;2023-07-31T10:20:25;9.32;;;4.38;;
70780;SDS011;59514;48.810;2.134;2023-07-31T10:22:52;6.82;;;4.10;;
70780;SDS011;59514;48.810;2.134;2023-07-31T10:25:19;9.82;;;4.45;;
70780;SDS011;59514;48.810;2.134;2023-07-31T10:27:44;7.53;;;4.10;;
70780;SDS011;59514;48.810;2.134;2023-07-31T10:30:12;7.50;;;3.75;;
70780;SDS011;59514;48.810;2.134;2023-07-31T10:32:40;5.30;;;3.55;;
70780;SDS011;59514;48.810;2.134;2023-07-31T10:35:07;8.60;;;4.07;;
70780;SDS011;59514;48.810;2.134;2023-07-31T10:37:39;6.68;;;3.83;;
70780;SDS011;59514;48.810;2.134;2023-07-31T10:40:12;6.68;;;3.35;;
70780;SDS011;59514;48.810;2.134;2023-07-31T10:42:47;6.03;;;3.67;;
70780;SDS011;59514;48.810;2.134;2023-07-31T10:45:13;5.53;;;3.67;;
70780;SDS011;59514;48.810;2.134;2023-07-31T10:47:39;8.38;;;4.22;;
70780;SDS011;59514;48.810;2.134;2023-07-31T10:50:17;8.75;;;4.30;;
70780;SDS011;59514;48.810;2.134;2023-07-31T10:52:48;10.93;;;4.50;;
70780;SDS011;59514;48.810;2.134;2023-07-31T10:55:59;7.05;;;4.13;;
70780;SDS011;59514;48.810;2.134;2023-07-31T10:58:09;6.88;;;4.70;;
70780;SDS011;59514;48.810;2.134;2023-07-31T11:00:41;10.27;;;4.78;;
70780;SDS011;59514;48.810;2.134;2023-07-31T11:03:10;10.07;;;4.47;;
70780;SDS011;59514;48.810;2.134;2023-07-31T11:08:24;7.43;;;3.92;;
70780;SDS011;59514;48.810;2.134;2023-07-31T11:11:04;7.95;;;4.00;;
70780;SDS011;59514;48.810;2.134;2023-07-31T11:13:31;7.78;;;4.30;;
70780;SDS011;59514;48.810;2.134;2023-07-31T11:15:56;6.80;;;4.50;;
70780;SDS011;59514;48.810;2.134;2023-07-31T11:18:22;8.27;;;4.55;;
70780;SDS011;59514;48.810;2.134;2023-07-31T11:20:50;5.57;;;3.97;;
70780;SDS011;59514;48.810;2.134;2023-07-31T11:23:16;5.50;;;4.20;;
70780;SDS011;59514;48.810;2.134;2023-07-31T11:25:41;7.63;;;4.50;;
70780;SDS011;59514;48.810;2.134;2023-07-31T11:28:08;8.65;;;4.32;;
70780;SDS011;59514;48.810;2.134;2023-07-31T11:30:34;11.02;;;4.70;;
70780;SDS011;59514;48.810;2.134;2023-07-31T11:33:00;8.10;;;4.63;;
70780;SDS011;59514;48.810;2.134;2023-07-31T11:35:25;8.02;;;4.65;;
70780;SDS011;59514;48.810;2.134;2023-07-31T11:37:51;5.65;;;3.92;;
70780;SDS011;59514;48.810;2.134;2023-07-31T11:40:16;8.50;;;5.13;;
70780;SDS011;59514;48.810;2.134;2023-07-31T11:42:41;6.85;;;4.05;;
70780;SDS011;59514;48.810;2.134;2023-07-31T11:45:07;5.17;;;4.03;;
70780;SDS011;59514;48.810;2.134;2023-07-31T11:47:36;6.45;;;4.10;;
70780;SDS011;59514;48.810;2.134;2023-07-31T11:50:02;8.23;;;4.13;;
70780;SDS011;59514;48.810;2.134;2023-07-31T11:52:36;6.78;;;4.00;;
70780;SDS011;59514;48.810;2.134;2023-07-31T11:55:03;8.00;;;4.25;;
70780;SDS011;59514;48.810;2.134;2023-07-31T11:57:31;5.30;;;3.85;;
70780;SDS011;59514;48.810;2.134;2023-07-31T11:59:57;4.85;;;3.80;;
70780;SDS011;59514;48.810;2.134;2023-07-31T12:02:23;5.05;;;3.70;;
70780;SDS011;59514;48.810;2.134;2023-07-31T12:04:48;8.68;;;4.50;;
70780;SDS011;59514;48.810;2.134;2023-07-31T12:07:14;5.22;;;3.15;;
70780;SDS011;59514;48.810;2.134;2023-07-31T12:09:50;7.77;;;3.67;;
70780;SDS011;59514;48.810;2.134;2023-07-31T12:12:19;6.20;;;3.78;;
70780;SDS011;59514;48.810;2.134;2023-07-31T12:14:44;6.20;;;4.40;;
70780;SDS011;59514;48.810;2.134;2023-07-31T12:17:09;7.70;;;3.37;;
70780;SDS011;59514;48.810;2.134;2023-07-31T12:19:35;5.23;;;3.77;;
70780;SDS011;59514;48.810;2.134;2023-07-31T12:22:00;5.80;;;3.40;;
70780;SDS011;59514;48.810;2.134;2023-07-31T12:24:26;6.15;;;3.88;;
70780;SDS011;59514;48.810;2.134;2023-07-31T12:26:52;6.13;;;3.20;;
70780;SDS011;59514;48.810;2.134;2023-07-31T12:29:17;4.72;;;4.28;;
70780;SDS011;59514;48.810;2.134;2023-07-31T12:31:43;4.07;;;3.22;;
70780;SDS011;59514;48.810;2.134;2023-07-31T12:34:17;6.93;;;4.27;;
70780;SDS011;59514;48.810;2.134;2023-07-31T12:36:43;4.75;;;3.15;;
70780;SDS011;59514;48.810;2.134;2023-07-31T12:39:09;4.20;;;3.25;;
70780;SDS011;59514;48.810;2.134;2023-07-31T12:41:35;6.85;;;3.78;;
70780;SDS011;59514;48.810;2.134;2023-07-31T12:44:00;5.40;;;3.57;;
70780;SDS011;59514;48.810;2.134;2023-07-31T12:46:25;5.47;;;3.23;;
70780;SDS011;59514;48.810;2.134;2023-07-31T12:48:50;5.23;;;2.90;;
70780;SDS011;59514;48.810;2.134;2023-07-31T12:51:15;5.53;;;3.67;;
70780;SDS011;59514;48.810;2.134;2023-07-31T12:53:41;4.13;;;2.93;;
70780;SDS011;59514;48.810;2.134;2023-07-31T12:56:06;4.93;;;3.00;;
70780;SDS011;59514;48.810;2.134;2023-07-31T12:58:31;7.25;;;3.72;;
70780;SDS011;59514;48.810;2.134;2023-07-31T13:00:57;7.60;;;4.00;;
70780;SDS011;59514;48.810;2.134;2023-07-31T13:03:22;4.68;;;3.20;;
70780;SDS011;59514;48.810;2.134;2023-07-31T13:05:47;6.30;;;3.53;;
70780;SDS011;59514;48.810;2.134;2023-07-31T13:08:13;4.00;;;3.17;;
70780;SDS011;59514;48.810;2.134;2023-07-31T13:10:40;4.00;;;2.90;;
70780;SDS011;59514;48.810;2.134;2023-07-31T13:13:05;5.07;;;3.13;;
70780;SDS011;59514;48.810;2.134;2023-07-31T13:15:31;5.00;;;3.13;;
70780;SDS011;59514;48.810;2.134;2023-07-31T13:17:56;4.97;;;2.83;;
70780;SDS011;59514;48.810;2.134;2023-07-31T13:20:21;5.27;;;3.73;;
70780;SDS011;59514;48.810;2.134;2023-07-31T13:22:47;5.53;;;2.80;;
70780;SDS011;59514;48.810;2.134;2023-07-31T13:25:12;5.70;;;2.97;;
70780;SDS011;59514;48.810;2.134;2023-07-31T13:27:37;4.50;;;2.50;;
70780;SDS011;59514;48.810;2.134;2023-07-31T13:30:03;10.20;;;3.30;;
70780;SDS011;59514;48.810;2.134;2023-07-31T13:32:31;7.22;;;2.90;;
70780;SDS011;59514;48.810;2.134;2023-07-31T13:34:56;3.63;;;2.50;;
70780;SDS011;59514;48.810;2.134;2023-07-31T13:37:22;4.05;;;2.58;;
70780;SDS011;59514;48.810;2.134;2023-07-31T13:39:47;4.10;;;2.80;;
70780;SDS011;59514;48.810;2.134;2023-07-31T13:42:12;4.32;;;2.40;;
70780;SDS011;59514;48.810;2.134;2023-07-31T13:44:38;3.05;;;2.10;;
70780;SDS011;59514;48.810;2.134;2023-07-31T13:47:04;3.67;;;2.20;;
70780;SDS011;59514;48.810;2.134;2023-07-31T13:49:29;5.47;;;2.40;;
70780;SDS011;59514;48.810;2.134;2023-07-31T13:51:55;4.20;;;2.58;;
70780;SDS011;59514;48.810;2.134;2023-07-31T13:54:20;3.50;;;2.55;;
70780;SDS011;59514;48.810;2.134;2023-07-31T13:56:45;5.15;;;2.20;;
70780;SDS011;59514;48.810;2.134;2023-07-31T13:59:11;6.20;;;2.50;;
70780;SDS011;59514;48.810;2.134;2023-07-31T14:01:36;4.22;;;2.40;;
70780;SDS011;59514;48.810;2.134;2023-07-31T14:04:02;5.70;;;2.15;;
70780;SDS011;59514;48.810;2.134;2023-07-31T14:06:27;3.85;;;2.30;;
70780;SDS011;59514;48.810;2.134;2023-07-31T14:08:53;4.03;;;2.63;;
70780;SDS011;59514;48.810;2.134;2023-07-31T14:11:18;5.07;;;2.85;;
70780;SDS011;59514;48.810;2.134;2023-07-31T14:13:44;3.28;;;2.40;;
70780;SDS011;59514;48.810;2.134;2023-07-31T14:16:09;5.68;;;2.97;;
70780;SDS011;59514;48.810;2.134;2023-07-31T14:18:34;4.13;;;3.00;;
70780;SDS011;59514;48.810;2.134;2023-07-31T14:20:59;5.30;;;3.40;;
70780;SDS011;59514;48.810;2.134;2023-07-31T14:23:25;5.57;;;3.70;;
70780;SDS011;59514;48.810;2.134;2023-07-31T14:25:50;5.43;;;3.10;;
70780;SDS011;59514;48.810;2.134;2023-07-31T14:28:15;6.43;;;3.40;;
70780;SDS011;59514;48.810;2.134;2023-07-31T14:30:40;5.37;;;3.50;;
70780;SDS011;59514;48.810;2.134;2023-07-31T14:33:06;5.37;;;3.50;;
70780;SDS011;59514;48.810;2.134;2023-07-31T14:35:31;4.15;;;3.20;;
70780;SDS011;59514;48.810;2.134;2023-07-31T14:37:56;4.85;;;3.10;;
70780;SDS011;59514;48.810;2.134;2023-07-31T14:40:22;5.77;;;3.37;;
70780;SDS011;59514;48.810;2.134;2023-07-31T14:42:47;4.68;;;3.38;;
70780;SDS011;59514;48.810;2.134;2023-07-31T14:45:13;7.55;;;3.83;;
70780;SDS011;59514;48.810;2.134;2023-07-31T14:47:38;5.82;;;3.90;;
70780;SDS011;59514;48.810;2.134;2023-07-31T14:50:04;5.13;;;3.77;;